createdAt,value
2023-12-23T00:01:14.340Z,101209.78
2023-12-23T00:03:43.917Z,101216.56
2023-12-23T00:06:16.630Z,101218.69
2023-12-23T00:08:46.256Z,101230.47
2023-12-23T00:11:15.807Z,101223.88
2023-12-23T00:13:47.988Z,101239.44
2023-12-23T00:16:19.519Z,101246.28
2023-12-23T00:18:53.623Z,101251.81
2023-12-23T00:21:23.684Z,101255.53
2023-12-23T00:23:59.102Z,101259.78
2023-12-23T00:26:53.409Z,101264.28
2023-12-23T00:29:22.898Z,101261.06
2023-12-23T00:31:55.853Z,101263.28
2023-12-23T00:34:44.457Z,101266.13
2023-12-23T00:40:13.202Z,101263.34
2023-12-23T00:40:31.791Z,101266.81
2023-12-23T00:42:44.560Z,101264.66
2023-12-23T00:45:14.831Z,101269.63
2023-12-23T00:47:48.405Z,101271.66
2023-12-23T00:50:19.851Z,101279.72
2023-12-23T00:52:54.183Z,101286.81
2023-12-23T00:55:44.003Z,101290.56
2023-12-23T00:58:16.471Z,101300.34
2023-12-23T01:00:46.101Z,101300.63
2023-12-23T01:03:15.503Z,101311.66
2023-12-23T01:05:44.861Z,101308.00
2023-12-23T01:08:16.497Z,101315.63
2023-12-23T01:10:46.045Z,101314.06
2023-12-23T01:13:20.752Z,101318.03
2023-12-23T01:15:53.661Z,101317.88
2023-12-23T01:18:23.326Z,101317.88
2023-12-23T01:21:16.653Z,101334.19
2023-12-23T01:23:46.110Z,101343.19
2023-12-23T01:26:18.759Z,101335.47
2023-12-23T01:28:49.170Z,101342.72
2023-12-23T01:31:23.367Z,101347.19
2023-12-23T01:33:54.367Z,101345.03
2023-12-23T01:36:24.198Z,101346.34
2023-12-23T01:38:53.959Z,101341.91
2023-12-23T01:41:25.473Z,101342.63
2023-12-23T01:44:00.527Z,101343.13
2023-12-23T01:46:32.260Z,101342.88
2023-12-23T01:49:05.706Z,101337.94
2023-12-23T01:51:59.174Z,101336.34
2023-12-23T01:54:58.806Z,101345.91
2023-12-23T01:57:48.863Z,101345.47
2023-12-23T02:00:20.174Z,101339.94
2023-12-23T02:02:54.462Z,101339.84
2023-12-23T02:05:26.165Z,101336.34
2023-12-23T02:07:55.928Z,101347.25
2023-12-23T02:10:26.177Z,101342.06
2023-12-23T02:13:48.236Z,101356.50
2023-12-23T02:16:37.859Z,101354.16
2023-12-23T02:19:07.623Z,101355.75
2023-12-23T02:21:41.393Z,101368.00
2023-12-23T02:24:10.719Z,101371.34
2023-12-23T02:26:44.444Z,101364.16
2023-12-23T02:29:18.452Z,101375.88
2023-12-23T02:31:49.198Z,101378.72
2023-12-23T02:34:21.529Z,101392.63
2023-12-23T02:36:51.852Z,101389.00
2023-12-23T02:39:25.618Z,101392.88
2023-12-23T02:42:17.368Z,101389.00
2023-12-23T02:44:47.267Z,101401.59
2023-12-23T02:47:16.948Z,101404.53
2023-12-23T02:49:49.524Z,101410.50
2023-12-23T02:52:19.297Z,101407.75
2023-12-23T02:54:51.375Z,101426.53
2023-12-23T02:57:24.907Z,101426.66
2023-12-23T02:59:58.291Z,101431.03
2023-12-23T03:02:48.088Z,101435.28
2023-12-23T03:05:17.707Z,101444.53
2023-12-23T03:07:50.394Z,101450.81
2023-12-23T03:10:19.957Z,101460.53
2023-12-23T03:12:56.511Z,101453.72
2023-12-23T03:15:28.702Z,101445.81
2023-12-23T03:18:00.791Z,101451.47
2023-12-23T03:20:55.899Z,101442.75
2023-12-23T03:23:45.464Z,101454.03
2023-12-23T03:26:14.886Z,101452.25
2023-12-23T03:28:46.957Z,101450.81
2023-12-23T03:31:16.371Z,101458.53
2023-12-23T03:33:46.016Z,101458.88
2023-12-23T03:36:20.426Z,101470.53
2023-12-23T03:38:53.135Z,101471.47
2023-12-23T03:41:25.007Z,101479.88
2023-12-23T03:43:57.198Z,101475.06
2023-12-23T03:46:46.749Z,101474.88
2023-12-23T03:49:21.547Z,101481.19
2023-12-23T03:51:53.952Z,101489.25
2023-12-23T03:54:26.594Z,101486.19
2023-12-23T03:57:17.598Z,101494.09
2023-12-23T03:59:47.768Z,101496.84
2023-12-23T04:02:19.055Z,101495.88
2023-12-23T04:04:48.923Z,101502.81
2023-12-23T04:07:19.863Z,101506.06
2023-12-23T04:09:55.382Z,101511.38
2023-12-23T04:12:24.936Z,101522.03
2023-12-23T04:14:57.293Z,101526.09
2023-12-23T04:17:30.755Z,101527.03
2023-12-23T04:20:01.997Z,101530.25
2023-12-23T04:22:35.093Z,101531.91
2023-12-23T04:25:27.959Z,101540.63
2023-12-23T04:27:57.855Z,101533.19
2023-12-23T04:30:31.197Z,101539.00
2023-12-23T04:33:01.616Z,101533.81
2023-12-23T04:35:32.462Z,101550.13
2023-12-23T04:38:03.042Z,101547.03
2023-12-23T04:40:35.112Z,101549.31
2023-12-23T04:43:22.204Z,101538.00
2023-12-23T04:45:56.367Z,101546.72
2023-12-23T04:48:59.911Z,101544.66
2023-12-23T04:51:26.553Z,101558.53
2023-12-23T04:53:57.279Z,101545.59
2023-12-23T04:56:29.750Z,101539.63
2023-12-23T04:58:59.039Z,101563.41
2023-12-23T05:01:29.405Z,101557.41
2023-12-23T05:04:04.685Z,101552.56
2023-12-23T05:06:52.477Z,101561.78
2023-12-23T05:09:22.062Z,101565.97
2023-12-23T05:11:54.351Z,101575.19
2023-12-23T05:14:23.910Z,101583.56
2023-12-23T05:16:59.577Z,101592.63
2023-12-23T05:19:29.888Z,101594.88
2023-12-23T05:22:01.504Z,101598.78
2023-12-23T05:24:31.007Z,101606.22
2023-12-23T05:27:02.991Z,101604.28
2023-12-23T05:29:34.316Z,101607.31
2023-12-23T05:32:24.536Z,101602.34
2023-12-23T05:35:06.008Z,101611.38
2023-12-23T05:37:36.582Z,101621.88
2023-12-23T05:40:07.548Z,101617.84
2023-12-23T05:42:37.069Z,101620.09
2023-12-23T05:45:07.859Z,101624.63
2023-12-23T05:47:42.746Z,101630.94
2023-12-23T05:50:29.767Z,101637.06
2023-12-23T05:52:59.612Z,101640.78
2023-12-23T05:55:32.734Z,101647.88
2023-12-23T05:58:05.846Z,101663.72
2023-12-23T06:00:36.246Z,101657.25
2023-12-23T06:03:09.260Z,101657.25
2023-12-23T06:05:40.064Z,101661.25
2023-12-23T06:08:10.975Z,101667.69
2023-12-23T06:10:50.349Z,101678.88
2023-12-23T06:13:37.681Z,101686.88
2023-12-23T06:16:10.566Z,101684.38
2023-12-23T06:18:40.188Z,101686.47
2023-12-23T06:21:13.304Z,101682.78
2023-12-23T06:24:00.588Z,101691.16
2023-12-23T06:26:32.966Z,101692.75
2023-12-23T06:29:08.952Z,101695.50
2023-12-23T06:31:41.318Z,101694.06
2023-12-23T06:34:31.345Z,101708.72
2023-12-23T06:37:01.367Z,101711.19
2023-12-23T06:39:37.116Z,101710.19
2023-12-23T06:42:06.581Z,101716.13
2023-12-23T06:44:36.633Z,101717.22
2023-12-23T06:47:08.785Z,101728.47
2023-12-23T06:49:46.587Z,101721.03
2023-12-23T06:52:36.634Z,101728.75
2023-12-23T06:55:10.246Z,101733.75
2023-12-23T06:57:43.211Z,101741.53
2023-12-23T07:00:29.386Z,101745.25
2023-12-23T07:03:01.872Z,101747.38
2023-12-23T07:05:31.346Z,101760.97
2023-12-23T07:08:35.501Z,101757.56
2023-12-23T07:11:23.909Z,101763.66
2023-12-23T07:13:56.490Z,101771.94
2023-12-23T07:16:26.232Z,101771.50
2023-12-23T07:19:04.365Z,101763.59
2023-12-23T07:21:36.603Z,101765.72
2023-12-23T07:24:06.407Z,101768.97
2023-12-23T07:27:04.911Z,101767.16
2023-12-23T07:29:34.407Z,101763.03
2023-12-23T07:32:27.456Z,101772.66
2023-12-23T07:35:00.258Z,101765.63
2023-12-23T07:37:50.657Z,101768.06
2023-12-23T07:40:22.834Z,101769.25
2023-12-23T07:42:54.140Z,101762.31
2023-12-23T07:45:29.584Z,101770.41
2023-12-23T07:47:59.458Z,101771.03
2023-12-23T07:50:56.770Z,101773.38
2023-12-23T07:53:46.285Z,101783.34
2023-12-23T07:56:16.940Z,101778.53
2023-12-23T07:59:12.414Z,101772.19
2023-12-23T08:01:48.297Z,101780.66
2023-12-23T08:04:23.832Z,101775.94
2023-12-23T08:06:54.645Z,101776.25
2023-12-23T08:09:24.731Z,101784.16
2023-12-23T08:11:54.616Z,101770.69
2023-12-23T08:14:24.211Z,101787.97
2023-12-23T08:17:13.638Z,101784.16
2023-12-23T08:19:46.041Z,101786.25
2023-12-23T08:22:15.360Z,101784.00
2023-12-23T08:24:48.537Z,101788.75
2023-12-23T08:27:20.079Z,101781.34
2023-12-23T08:29:56.988Z,101786.22
2023-12-23T08:33:06.952Z,101781.41
2023-12-23T08:35:42.962Z,101791.81
2023-12-23T08:38:15.282Z,101793.75
2023-12-23T08:40:46.379Z,101796.31
2023-12-23T08:43:16.445Z,101789.97
2023-12-23T08:45:46.429Z,101795.47
2023-12-23T08:48:16.540Z,101796.00
2023-12-23T08:50:49.325Z,101794.13
2023-12-23T08:53:24.184Z,101803.44
2023-12-23T08:55:55.445Z,101796.16
2023-12-23T08:58:26.826Z,101805.28
2023-12-23T09:00:56.341Z,101813.63
2023-12-23T09:03:25.919Z,101814.66
2023-12-23T09:05:55.841Z,101817.47
2023-12-23T09:08:26.343Z,101817.75
2023-12-23T09:10:58.196Z,101819.59
2023-12-23T09:13:29.760Z,101821.91
2023-12-23T09:16:03.142Z,101819.09
2023-12-23T09:18:33.181Z,101814.44
2023-12-23T09:21:03.956Z,101821.03
2023-12-23T09:23:36.608Z,101826.75
2023-12-23T09:26:26.987Z,101827.00
2023-12-23T09:28:59.429Z,101836.53
2023-12-23T09:31:28.867Z,101832.06
2023-12-23T09:33:59.271Z,101840.81
2023-12-23T09:36:29.770Z,101847.91
2023-12-23T09:39:01.476Z,101852.06
2023-12-23T09:41:34.406Z,101848.06
2023-12-23T09:44:04.762Z,101856.00
2023-12-23T09:46:37.856Z,101861.31
2023-12-23T09:49:08.766Z,101861.06
2023-12-23T09:51:38.259Z,101863.59
2023-12-23T09:54:11.768Z,101852.81
2023-12-23T09:56:48.730Z,101861.06
2023-12-23T09:59:36.889Z,101873.56
2023-12-23T10:02:06.530Z,101880.47
2023-12-23T10:04:36.698Z,101883.25
2023-12-23T10:07:06.225Z,101880.16
2023-12-23T10:09:38.079Z,101885.50
2023-12-23T10:12:10.728Z,101882.19
2023-12-23T10:14:44.178Z,101883.84
2023-12-23T10:17:37.633Z,101884.41
2023-12-23T10:20:09.422Z,101882.66
2023-12-23T10:22:38.936Z,101882.72
2023-12-23T10:25:10.317Z,101892.75
2023-12-23T10:27:44.773Z,101888.22
2023-12-23T10:30:16.782Z,101890.78
2023-12-23T10:32:50.810Z,101887.88
2023-12-23T10:35:27.488Z,101892.25
2023-12-23T10:38:16.837Z,101889.25
2023-12-23T10:41:09.828Z,101888.47
2023-12-23T10:43:40.252Z,101897.53
2023-12-23T10:46:10.455Z,101887.97
2023-12-23T10:48:44.976Z,101898.81
2023-12-23T10:51:15.220Z,101905.50
2023-12-23T10:53:44.831Z,101899.34
2023-12-23T10:56:16.755Z,101911.25
2023-12-23T10:59:11.361Z,101901.59
2023-12-23T11:01:44.985Z,101914.53
2023-12-23T11:04:15.269Z,101908.22
2023-12-23T11:06:48.362Z,101918.78
2023-12-23T11:09:37.306Z,101917.72
2023-12-23T11:12:08.381Z,101916.91
2023-12-23T11:14:39.817Z,101922.63
2023-12-23T11:17:39.241Z,101922.63
2023-12-23T11:20:31.234Z,101920.84
2023-12-23T11:23:30.499Z,101923.53
2023-12-23T11:26:00.297Z,101926.75
2023-12-23T11:28:33.144Z,101919.56
2023-12-23T11:31:06.518Z,101914.22
2023-12-23T11:33:52.088Z,101911.81
2023-12-23T11:36:26.072Z,101919.69
2023-12-23T11:38:59.034Z,101923.44
2023-12-23T11:41:28.858Z,101928.66
2023-12-23T11:44:04.916Z,101922.16
2023-12-23T11:46:35.436Z,101919.47
2023-12-23T11:49:05.034Z,101927.25
2023-12-23T11:51:36.225Z,101927.00
2023-12-23T11:54:06.012Z,101930.31
2023-12-23T11:56:35.810Z,101928.53
2023-12-23T11:59:11.570Z,101938.28
2023-12-23T12:02:05.052Z,101940.72
2023-12-23T12:04:35.488Z,101946.22
2023-12-23T12:07:05.065Z,101944.75
2023-12-23T12:09:37.934Z,101944.69
2023-12-23T12:12:30.370Z,101950.31
2023-12-23T12:14:59.898Z,101953.63
2023-12-23T12:17:31.800Z,101947.00
2023-12-23T12:20:03.589Z,101953.03
2023-12-23T12:25:30.976Z,101951.13
2023-12-23T12:28:02.713Z,101954.25
2023-12-23T12:30:35.585Z,101960.75
2023-12-23T12:33:11.926Z,101959.25
2023-12-23T12:35:55.361Z,101964.44
2023-12-23T12:38:31.716Z,101971.34
2023-12-23T12:41:02.991Z,101967.13
2023-12-23T12:43:38.386Z,101970.66
2023-12-23T12:46:08.643Z,101977.72
2023-12-23T12:48:39.677Z,101977.59
2023-12-23T12:51:11.919Z,101970.13
2023-12-23T12:53:43.712Z,101972.19
2023-12-23T12:56:13.851Z,101978.13
2023-12-23T12:58:47.099Z,101974.78
2023-12-23T13:01:33.460Z,101965.84
2023-12-23T13:04:06.810Z,101977.31
2023-12-23T13:06:37.160Z,101978.81
2023-12-23T13:09:07.178Z,101992.09
2023-12-23T13:11:36.974Z,101992.47
2023-12-23T13:14:08.850Z,101998.47
2023-12-23T13:16:38.581Z,101997.81
2023-12-23T13:19:10.250Z,101998.75
2023-12-23T13:21:42.914Z,101996.91
2023-12-23T13:24:12.266Z,101998.41
2023-12-23T13:26:44.900Z,101997.94
2023-12-23T13:29:17.308Z,102004.09
2023-12-23T13:31:46.969Z,102002.38
2023-12-23T13:34:16.332Z,101994.94
2023-12-23T13:36:49.899Z,101997.44
2023-12-23T13:39:21.876Z,102000.22
2023-12-23T13:41:55.300Z,101991.31
2023-12-23T13:44:27.939Z,101988.66
2023-12-23T13:49:47.546Z,101999.56
2023-12-23T13:52:19.067Z,102011.31
2023-12-23T13:54:48.364Z,102015.59
2023-12-23T13:57:19.954Z,102020.56
2023-12-23T13:59:52.367Z,102022.38
2023-12-23T14:02:21.695Z,102023.91
2023-12-23T14:04:53.285Z,102030.81
2023-12-23T14:07:26.312Z,102029.28
2023-12-23T14:09:59.016Z,102032.34
2023-12-23T14:12:28.210Z,102025.50
2023-12-23T14:14:57.886Z,102031.31
2023-12-23T14:17:31.243Z,102032.59
2023-12-23T14:20:00.682Z,102033.50
2023-12-23T14:22:29.950Z,102030.88
2023-12-23T14:25:03.525Z,102033.44
2023-12-23T14:27:32.968Z,102025.06
2023-12-23T14:30:03.119Z,102030.88
2023-12-23T14:32:33.170Z,102033.44
2023-12-23T14:35:05.269Z,102038.16
2023-12-23T14:37:42.281Z,102036.25
2023-12-23T14:40:32.747Z,102042.13
2023-12-23T14:43:05.226Z,102043.66
2023-12-23T14:45:34.498Z,102044.44
2023-12-23T14:48:04.352Z,102050.56
2023-12-23T14:50:36.495Z,102047.78
2023-12-23T14:53:05.980Z,102053.75
2023-12-23T14:55:40.914Z,102044.25
2023-12-23T14:58:14.027Z,102046.09
2023-12-23T15:00:43.507Z,102044.53
2023-12-23T15:03:12.803Z,102041.03
2023-12-23T15:05:46.229Z,102048.28
2023-12-23T15:08:15.836Z,102055.97
2023-12-23T15:10:45.117Z,102051.72
2023-12-23T15:13:19.983Z,102050.63
2023-12-23T15:15:53.015Z,102051.63
2023-12-23T15:18:23.617Z,102050.84
2023-12-23T15:21:19.781Z,102056.78
2023-12-23T15:23:47.590Z,102061.22
2023-12-23T15:26:17.051Z,102061.97
2023-12-23T15:28:46.298Z,102064.13
2023-12-23T15:31:18.163Z,102060.50
2023-12-23T15:33:47.990Z,102071.91
2023-12-23T15:36:17.972Z,102073.00
2023-12-23T15:38:49.594Z,102078.88
2023-12-23T15:41:18.954Z,102068.25
2023-12-23T15:43:53.615Z,102068.56
2023-12-23T15:46:25.049Z,102077.38
2023-12-23T15:48:56.762Z,102085.03
2023-12-23T15:51:26.511Z,102085.34
2023-12-23T15:53:56.744Z,102086.47
2023-12-23T15:56:27.127Z,102101.03
2023-12-23T15:58:58.880Z,102104.63
2023-12-23T16:01:31.060Z,102113.44
2023-12-23T16:04:00.564Z,102112.72
2023-12-23T16:06:31.565Z,102119.28
2023-12-23T16:09:00.934Z,102127.75
2023-12-23T16:11:35.558Z,102134.72
2023-12-23T16:14:07.331Z,102135.66
2023-12-23T16:16:37.410Z,102134.25
2023-12-23T16:19:09.271Z,102125.25
2023-12-23T16:21:38.700Z,102138.53
2023-12-23T16:24:08.556Z,102141.00
2023-12-23T16:26:40.716Z,102149.91
2023-12-23T16:29:10.247Z,102146.34
2023-12-23T16:31:39.479Z,102144.81
2023-12-23T16:34:13.082Z,102152.75
2023-12-23T16:36:50.578Z,102142.28
2023-12-23T16:39:41.669Z,102144.03
2023-12-23T16:42:16.120Z,102154.41
2023-12-23T16:44:45.547Z,102160.22
2023-12-23T16:47:15.086Z,102159.97
2023-12-23T16:49:44.603Z,102176.50
2023-12-23T16:52:14.488Z,102165.56
2023-12-23T16:54:44.043Z,102172.56
2023-12-23T16:57:16.733Z,102179.09
2023-12-23T16:59:46.007Z,102175.91
2023-12-23T17:02:20.685Z,102182.75
2023-12-23T17:05:12.254Z,102182.31
2023-12-23T17:07:41.448Z,102186.06
2023-12-23T17:10:13.649Z,102184.44
2023-12-23T17:12:45.877Z,102185.13
2023-12-23T17:15:18.104Z,102186.03
2023-12-23T17:17:47.512Z,102183.03
2023-12-23T17:20:17.307Z,102179.09
2023-12-23T17:22:55.903Z,102184.53
2023-12-23T17:25:45.805Z,102188.53
2023-12-23T17:28:17.436Z,102191.81
2023-12-23T17:30:47.162Z,102189.88
2023-12-23T17:33:16.612Z,102195.94
2023-12-23T17:35:50.362Z,102192.06
2023-12-23T17:38:27.229Z,102198.16
2023-12-23T17:41:17.000Z,102204.81
2023-12-23T17:43:48.211Z,102213.31
2023-12-23T17:46:17.671Z,102208.69
2023-12-23T17:48:49.041Z,102222.50
2023-12-23T17:51:21.055Z,102218.66
2023-12-23T17:53:50.346Z,102228.09
2023-12-23T17:56:22.861Z,102227.16
2023-12-23T17:59:17.086Z,102229.84
2023-12-23T18:01:49.093Z,102238.16
2023-12-23T18:04:20.662Z,102234.25
2023-12-23T18:06:50.182Z,102237.53
2023-12-23T18:09:22.649Z,102238.53
2023-12-23T18:11:51.931Z,102245.00
2023-12-23T18:14:29.510Z,102234.59
2023-12-23T18:17:02.292Z,102227.28
2023-12-23T18:19:34.090Z,102224.34
2023-12-23T18:22:03.554Z,102226.66
2023-12-23T18:24:33.684Z,102214.13
2023-12-23T18:27:03.435Z,102215.34
2023-12-23T18:29:33.067Z,102210.69
2023-12-23T18:32:05.808Z,102213.03
2023-12-23T18:34:35.494Z,102210.00
2023-12-23T18:37:09.446Z,102203.41
2023-12-23T18:40:00.183Z,102203.53
2023-12-23T18:42:29.646Z,102201.28
2023-12-23T18:45:01.016Z,102207.63
2023-12-23T18:47:30.705Z,102206.63
2023-12-23T18:50:00.149Z,102196.56
2023-12-23T18:52:35.242Z,102202.78
2023-12-23T18:55:04.734Z,102200.72
2023-12-23T18:57:34.428Z,102202.78
2023-12-23T19:00:14.140Z,102201.56
2023-12-23T19:03:10.144Z,102207.63
2023-12-23T19:05:40.246Z,102210.06
2023-12-23T19:08:31.576Z,102199.41
2023-12-23T19:11:01.695Z,102210.03
2023-12-23T19:13:40.225Z,102209.31
2023-12-23T19:19:01.586Z,102215.63
2023-12-23T19:21:32.842Z,102222.19
2023-12-23T19:24:05.380Z,102224.44
2023-12-23T19:27:02.515Z,102222.13
2023-12-23T19:29:32.944Z,102224.69
2023-12-23T19:32:03.842Z,102215.22
2023-12-23T19:34:38.333Z,102206.09
2023-12-23T19:37:31.620Z,102200.94
2023-12-23T19:40:09.745Z,102212.47
2023-12-23T19:42:51.810Z,102206.03
2023-12-23T19:45:22.057Z,102212.63
2023-12-23T19:47:53.879Z,102209.00
2023-12-23T19:50:24.018Z,102207.22
2023-12-23T19:52:59.401Z,102199.31
2023-12-23T19:55:28.697Z,102195.31
2023-12-23T19:57:58.154Z,102188.34
2023-12-23T20:00:29.573Z,102178.69
2023-12-23T20:03:01.820Z,102175.19
2023-12-23T20:05:36.112Z,102177.69
2023-12-23T20:08:06.637Z,102175.28
2023-12-23T20:10:36.518Z,102170.59
2023-12-23T20:13:10.544Z,102165.94
2023-12-23T20:15:44.197Z,102160.53
2023-12-23T20:18:33.968Z,102141.75
2023-12-23T20:21:05.372Z,102133.72
2023-12-23T20:23:34.947Z,102134.22
2023-12-23T20:26:04.544Z,102124.84
2023-12-23T20:28:33.952Z,102125.66
2023-12-23T20:31:08.849Z,102119.78
2023-12-23T20:33:38.144Z,102113.78
2023-12-23T20:36:10.611Z,102109.13
2023-12-23T20:38:42.157Z,102116.19
2023-12-23T20:41:14.538Z,102121.78
2023-12-23T20:43:58.352Z,102137.59
2023-12-23T20:46:39.190Z,102143.44
2023-12-23T20:49:11.588Z,102139.88
2023-12-23T20:51:46.857Z,102143.34
2023-12-23T20:54:36.475Z,102133.00
2023-12-23T20:57:10.085Z,102128.03
2023-12-23T20:59:39.525Z,102137.81
2023-12-23T21:02:09.299Z,102128.88
2023-12-23T21:04:41.161Z,102146.91
2023-12-23T21:07:13.019Z,102129.38
2023-12-23T21:09:43.710Z,102142.06
2023-12-23T21:12:15.060Z,102139.63
2023-12-23T21:14:50.611Z,102140.31
2023-12-23T21:17:20.163Z,102134.44
2023-12-23T21:19:52.823Z,102137.91
2023-12-23T21:22:23.320Z,102127.88
2023-12-23T21:25:15.161Z,102123.63
2023-12-23T21:27:46.778Z,102124.59
2023-12-23T21:30:20.598Z,102119.22
2023-12-23T21:33:07.398Z,102107.25
2023-12-23T21:35:39.872Z,102102.72
2023-12-23T21:38:15.629Z,102099.66
2023-12-23T21:41:15.240Z,102095.38
2023-12-23T21:44:10.239Z,102091.34
2023-12-23T21:46:39.513Z,102092.84
2023-12-23T21:49:12.460Z,102088.44
2023-12-23T21:55:00.274Z,102084.00
2023-12-23T21:57:32.463Z,102083.09
2023-12-23T22:00:07.400Z,102078.72
2023-12-23T22:02:41.968Z,102075.09
2023-12-23T22:06:13.051Z,102087.50
2023-12-23T22:08:55.340Z,102082.81
2023-12-23T22:11:49.465Z,102076.81
2023-12-23T22:14:21.876Z,102085.22
2023-12-23T22:19:42.368Z,102081.91
2023-12-23T22:22:17.394Z,102080.28
2023-12-23T22:24:46.740Z,102081.59
2023-12-23T22:27:22.161Z,102081.09
2023-12-23T22:29:54.927Z,102087.03
2023-12-23T22:35:14.794Z,102083.78
2023-12-23T22:35:36.229Z,102086.47
2023-12-23T22:37:46.321Z,102093.75
2023-12-23T22:40:16.961Z,102088.81
2023-12-23T22:42:54.145Z,102087.66
2023-12-23T22:45:44.597Z,102085.47
2023-12-23T22:48:19.612Z,102093.56
2023-12-23T22:51:12.042Z,102082.06
2023-12-23T22:53:46.660Z,102078.13
2023-12-23T22:56:16.199Z,102083.09
2023-12-23T22:58:45.673Z,102089.41
2023-12-23T23:01:18.425Z,102093.81
2023-12-23T23:03:53.916Z,102084.06
2023-12-23T23:06:43.992Z,102077.69
2023-12-23T23:09:14.208Z,102079.22
2023-12-23T23:11:46.447Z,102079.22
2023-12-23T23:14:19.027Z,102075.94
2023-12-23T23:16:51.698Z,102078.31
2023-12-23T23:19:23.730Z,102070.09
2023-12-23T23:22:17.443Z,102071.91
2023-12-23T23:24:47.061Z,102076.66
2023-12-23T23:27:16.521Z,102072.13
2023-12-23T23:29:53.958Z,102078.28
2023-12-23T23:32:40.501Z,102072.56
2023-12-23T23:35:12.177Z,102068.34
2023-12-23T23:37:46.074Z,102058.44
2023-12-23T23:40:20.374Z,102064.25
2023-12-23T23:43:12.020Z,102057.81
2023-12-23T23:46:06.086Z,102069.47
2023-12-23T23:48:35.600Z,102068.16
2023-12-23T23:51:11.001Z,102063.50
2023-12-23T23:53:41.337Z,102064.25
2023-12-23T23:56:11.322Z,102074.41
2023-12-23T23:58:41.143Z,102066.28
